sensor_id;sensor_type;location;lat;lon;timestamp;pressure;altitude;pressure_sealevel;temperature;humidity
60654;BME280;46476;53.614;10.048;2022-10-16T00:06:17;100629.75;;;17.49;64.86
60654;BME280;46476;53.614;10.048;2022-10-16T00:16:39;100631.81;;;17.40;64.99
60654;BME280;46476;53.614;10.048;2022-10-16T00:20:10;100630.97;;;17.40;64.80
60654;BME280;46476;53.614;10.048;2022-10-16T00:23:52;100629.53;;;17.44;64.77
60654;BME280;46476;53.614;10.048;2022-10-16T00:26:57;100635.63;;;17.46;64.40
60654;BME280;46476;53.614;10.048;2022-10-16T00:29:40;100635.41;;;17.47;64.43
60654;BME280;46476;53.614;10.048;2022-10-16T00:36:22;100644.06;;;17.51;63.63
60654;BME280;46476;53.614;10.048;2022-10-16T00:42:52;100649.09;;;17.47;63.14
60654;BME280;46476;53.614;10.048;2022-10-16T00:45:20;100652.03;;;17.46;63.28
60654;BME280;46476;53.614;10.048;2022-10-16T00:47:49;100644.50;;;17.48;62.92
60654;BME280;46476;53.614;10.048;2022-10-16T00:50:30;100659.66;;;17.51;62.47
60654;BME280;46476;53.614;10.048;2022-10-16T00:53:08;100656.06;;;17.50;62.16
60654;BME280;46476;53.614;10.048;2022-10-16T00:55:57;100653.34;;;17.50;62.28
60654;BME280;46476;53.614;10.048;2022-10-16T00:58:29;100655.91;;;17.52;62.16
60654;BME280;46476;53.614;10.048;2022-10-16T01:00:56;100660.28;;;17.53;61.66
60654;BME280;46476;53.614;10.048;2022-10-16T01:03:58;100659.06;;;17.55;61.44
60654;BME280;46476;53.614;10.048;2022-10-16T01:12:21;100665.53;;;17.47;61.02
60654;BME280;46476;53.614;10.048;2022-10-16T01:14:58;100663.19;;;17.44;61.15
60654;BME280;46476;53.614;10.048;2022-10-16T01:18:19;100666.81;;;17.45;61.14
60654;BME280;46476;53.614;10.048;2022-10-16T01:21:08;100672.06;;;17.46;60.63
60654;BME280;46476;53.614;10.048;2022-10-16T01:32:28;100685.25;;;17.36;60.33
60654;BME280;46476;53.614;10.048;2022-10-16T01:35:32;100682.97;;;17.40;60.21
60654;BME280;46476;53.614;10.048;2022-10-16T01:38:04;100681.22;;;17.32;60.33
60654;BME280;46476;53.614;10.048;2022-10-16T01:40:41;100674.25;;;17.29;60.14
60654;BME280;46476;53.614;10.048;2022-10-16T01:46:50;100675.28;;;17.28;60.42
60654;BME280;46476;53.614;10.048;2022-10-16T01:49:34;100675.94;;;17.30;60.07
60654;BME280;46476;53.614;10.048;2022-10-16T01:52:13;100666.69;;;17.31;60.21
60654;BME280;46476;53.614;10.048;2022-10-16T01:54:43;100676.78;;;17.31;60.30
60654;BME280;46476;53.614;10.048;2022-10-16T01:57:57;100676.78;;;17.31;60.37
60654;BME280;46476;53.614;10.048;2022-10-16T02:00:50;100686.69;;;17.32;59.81
60654;BME280;46476;53.614;10.048;2022-10-16T02:03:55;100674.63;;;17.26;60.07
60654;BME280;46476;53.614;10.048;2022-10-16T02:06:27;100679.28;;;17.26;60.08
60654;BME280;46476;53.614;10.048;2022-10-16T02:09:26;100680.09;;;17.26;59.98
60654;BME280;46476;53.614;10.048;2022-10-16T02:12:12;100678.63;;;17.24;60.00
60654;BME280;46476;53.614;10.048;2022-10-16T02:14:39;100678.63;;;17.24;60.41
60654;BME280;46476;53.614;10.048;2022-10-16T02:29:37;100689.81;;;17.29;59.51
60654;BME280;46476;53.614;10.048;2022-10-16T02:32:13;100686.25;;;17.28;59.63
60654;BME280;46476;53.614;10.048;2022-10-16T02:35:18;100681.97;;;17.19;59.58
60654;BME280;46476;53.614;10.048;2022-10-16T02:38:48;100693.16;;;17.24;59.74
60654;BME280;46476;53.614;10.048;2022-10-16T02:42:11;100689.34;;;17.25;59.49
60654;BME280;46476;53.614;10.048;2022-10-16T02:45:13;100682.38;;;17.23;59.29
60654;BME280;46476;53.614;10.048;2022-10-16T02:47:38;100679.66;;;17.23;59.36
60654;BME280;46476;53.614;10.048;2022-10-16T02:50:07;100684.50;;;17.21;59.32
60654;BME280;46476;53.614;10.048;2022-10-16T02:53:06;100690.41;;;17.24;59.26
60654;BME280;46476;53.614;10.048;2022-10-16T02:55:36;100687.69;;;17.24;59.29
60654;BME280;46476;53.614;10.048;2022-10-16T02:58:09;100686.38;;;17.20;59.39
60654;BME280;46476;53.614;10.048;2022-10-16T03:00:45;100691.84;;;17.20;59.36
60654;BME280;46476;53.614;10.048;2022-10-16T03:03:16;100688.25;;;17.20;59.40
60654;BME280;46476;53.614;10.048;2022-10-16T03:06:05;100684.59;;;17.12;59.43
60654;BME280;46476;53.614;10.048;2022-10-16T03:09:09;100691.53;;;17.08;59.31
60654;BME280;46476;53.614;10.048;2022-10-16T03:11:42;100681.25;;;17.10;59.24
60654;BME280;46476;53.614;10.048;2022-10-16T03:21:11;100678.97;;;16.92;59.65
60654;BME280;46476;53.614;10.048;2022-10-16T03:24:41;100694.59;;;16.98;59.46
60654;BME280;46476;53.614;10.048;2022-10-16T03:27:09;100689.38;;;17.04;59.70
60654;BME280;46476;53.614;10.048;2022-10-16T03:29:52;100686.41;;;16.98;59.68
60654;BME280;46476;53.614;10.048;2022-10-16T03:32:40;100686.97;;;16.94;59.54
60654;BME280;46476;53.614;10.048;2022-10-16T03:35:36;100694.53;;;16.92;59.68
60654;BME280;46476;53.614;10.048;2022-10-16T03:38:19;100684.91;;;16.96;59.81
60654;BME280;46476;53.614;10.048;2022-10-16T03:40:48;100692.84;;;16.91;59.74
60654;BME280;46476;53.614;10.048;2022-10-16T03:43:21;100690.09;;;16.91;59.53
60654;BME280;46476;53.614;10.048;2022-10-16T03:46:10;100694.88;;;16.89;59.72
60654;BME280;46476;53.614;10.048;2022-10-16T03:49:14;100703.59;;;16.77;59.83
60654;BME280;46476;53.614;10.048;2022-10-16T03:51:39;100697.56;;;16.82;59.78
60654;BME280;46476;53.614;10.048;2022-10-16T03:54:10;100697.75;;;16.80;60.02
60654;BME280;46476;53.614;10.048;2022-10-16T03:56:40;100697.34;;;16.83;59.81
60654;BME280;46476;53.614;10.048;2022-10-16T03:59:06;100694.63;;;16.83;60.05
60654;BME280;46476;53.614;10.048;2022-10-16T04:01:32;100693.38;;;16.86;60.17
60654;BME280;46476;53.614;10.048;2022-10-16T04:03:59;100705.94;;;16.80;60.14
60654;BME280;46476;53.614;10.048;2022-10-16T04:06:24;100700.69;;;16.79;60.03
60654;BME280;46476;53.614;10.048;2022-10-16T04:08:50;100704.25;;;16.79;59.73
60654;BME280;46476;53.614;10.048;2022-10-16T04:11:15;100721.97;;;16.83;59.87
60654;BME280;46476;53.614;10.048;2022-10-16T04:13:42;100727.91;;;16.87;59.75
60654;BME280;46476;53.614;10.048;2022-10-16T04:16:10;100735.63;;;16.83;59.68
60654;BME280;46476;53.614;10.048;2022-10-16T04:18:41;100729.44;;;16.75;59.60
60654;BME280;46476;53.614;10.048;2022-10-16T04:21:30;100733.03;;;16.75;59.52
60654;BME280;46476;53.614;10.048;2022-10-16T04:24:20;100731.78;;;16.78;59.59
60654;BME280;46476;53.614;10.048;2022-10-16T04:26:58;100736.03;;;16.80;59.68
60654;BME280;46476;53.614;10.048;2022-10-16T04:29:45;100737.34;;;16.85;59.83
60654;BME280;46476;53.614;10.048;2022-10-16T04:32:14;100734.34;;;16.79;59.51
60654;BME280;46476;53.614;10.048;2022-10-16T04:34:41;100731.41;;;16.81;59.75
60654;BME280;46476;53.614;10.048;2022-10-16T04:37:14;100736.88;;;16.81;59.61
60654;BME280;46476;53.614;10.048;2022-10-16T04:39:45;100741.88;;;16.77;59.66
60654;BME280;46476;53.614;10.048;2022-10-16T04:42:11;100747.16;;;16.79;59.55
60654;BME280;46476;53.614;10.048;2022-10-16T04:44:41;100755.16;;;16.80;59.46
60654;BME280;46476;53.614;10.048;2022-10-16T04:47:09;100760.91;;;16.86;59.47
60654;BME280;46476;53.614;10.048;2022-10-16T04:49:38;100761.75;;;16.86;59.21
60654;BME280;46476;53.614;10.048;2022-10-16T04:52:04;100764.59;;;16.78;59.14
60654;BME280;46476;53.614;10.048;2022-10-16T04:54:29;100759.78;;;16.80;59.35
60654;BME280;46476;53.614;10.048;2022-10-16T04:57:01;100757.50;;;16.83;59.44
60654;BME280;46476;53.614;10.048;2022-10-16T04:59:26;100753.88;;;16.76;59.39
60654;BME280;46476;53.614;10.048;2022-10-16T05:02:05;100757.72;;;16.82;59.47
60654;BME280;46476;53.614;10.048;2022-10-16T05:04:43;100762.63;;;16.87;59.19
60654;BME280;46476;53.614;10.048;2022-10-16T05:07:11;100756.06;;;16.88;59.32
60654;BME280;46476;53.614;10.048;2022-10-16T05:09:36;100776.28;;;16.87;59.23
60654;BME280;46476;53.614;10.048;2022-10-16T05:12:05;100767.22;;;16.86;59.25
60654;BME280;46476;53.614;10.048;2022-10-16T05:14:33;100779.19;;;16.85;59.34
60654;BME280;46476;53.614;10.048;2022-10-16T05:17:00;100778.16;;;16.86;59.40
60654;BME280;46476;53.614;10.048;2022-10-16T05:19:41;100784.66;;;16.85;59.64
60654;BME280;46476;53.614;10.048;2022-10-16T05:22:07;100781.09;;;16.85;59.28
60654;BME280;46476;53.614;10.048;2022-10-16T05:24:42;100787.13;;;16.80;59.45
60654;BME280;46476;53.614;10.048;2022-10-16T05:27:10;100777.59;;;16.76;59.77
60654;BME280;46476;53.614;10.048;2022-10-16T05:29:36;100782.50;;;16.80;59.85
60654;BME280;46476;53.614;10.048;2022-10-16T05:32:02;100784.38;;;16.80;59.82
60654;BME280;46476;53.614;10.048;2022-10-16T05:34:27;100791.75;;;16.79;60.13
60654;BME280;46476;53.614;10.048;2022-10-16T05:36:52;100779.59;;;16.82;59.92
60654;BME280;46476;53.614;10.048;2022-10-16T05:39:18;100793.72;;;16.86;60.11
60654;BME280;46476;53.614;10.048;2022-10-16T05:41:44;100794.88;;;16.91;59.80
60654;BME280;46476;53.614;10.048;2022-10-16T05:44:09;100798.53;;;16.98;60.09
60654;BME280;46476;53.614;10.048;2022-10-16T05:46:35;100790.59;;;17.04;59.70
60654;BME280;46476;53.614;10.048;2022-10-16T05:49:08;100791.84;;;17.01;60.03
60654;BME280;46476;53.614;10.048;2022-10-16T05:51:42;100790.59;;;17.04;60.04
60654;BME280;46476;53.614;10.048;2022-10-16T05:54:08;100791.13;;;17.14;59.51
60654;BME280;46476;53.614;10.048;2022-10-16T05:56:33;100789.97;;;17.23;59.26
60654;BME280;46476;53.614;10.048;2022-10-16T05:58:59;100794.00;;;17.27;59.27
60654;BME280;46476;53.614;10.048;2022-10-16T06:01:24;100807.28;;;17.30;58.90
60654;BME280;46476;53.614;10.048;2022-10-16T06:03:52;100808.78;;;17.33;58.90
60654;BME280;46476;53.614;10.048;2022-10-16T06:06:20;100798.91;;;17.32;58.94
60654;BME280;46476;53.614;10.048;2022-10-16T06:08:47;100802.28;;;17.34;59.25
60654;BME280;46476;53.614;10.048;2022-10-16T06:11:18;100799.53;;;17.34;58.97
60654;BME280;46476;53.614;10.048;2022-10-16T06:13:44;100808.41;;;17.36;59.05
60654;BME280;46476;53.614;10.048;2022-10-16T06:16:11;100805.28;;;17.39;58.92
60654;BME280;46476;53.614;10.048;2022-10-16T06:18:38;100804.44;;;17.39;59.17
60654;BME280;46476;53.614;10.048;2022-10-16T06:21:09;100801.69;;;17.39;58.97
60654;BME280;46476;53.614;10.048;2022-10-16T06:23:35;100803.41;;;17.40;59.27
60654;BME280;46476;53.614;10.048;2022-10-16T06:26:08;100805.28;;;17.39;58.91
60654;BME280;46476;53.614;10.048;2022-10-16T06:28:34;100810.69;;;17.32;59.10
60654;BME280;46476;53.614;10.048;2022-10-16T06:31:00;100815.50;;;17.30;59.25
60654;BME280;46476;53.614;10.048;2022-10-16T06:33:25;100812.13;;;17.28;59.33
60654;BME280;46476;53.614;10.048;2022-10-16T06:35:50;100822.03;;;17.29;59.52
60654;BME280;46476;53.614;10.048;2022-10-16T06:38:16;100820.13;;;17.30;59.37
60654;BME280;46476;53.614;10.048;2022-10-16T06:40:41;100836.94;;;17.27;59.16
60654;BME280;46476;53.614;10.048;2022-10-16T06:43:06;100837.13;;;17.25;59.30
60654;BME280;46476;53.614;10.048;2022-10-16T06:45:32;100827.75;;;17.13;59.34
60654;BME280;46476;53.614;10.048;2022-10-16T06:47:57;100827.66;;;17.06;59.60
60654;BME280;46476;53.614;10.048;2022-10-16T06:50:22;100834.38;;;17.04;59.56
60654;BME280;46476;53.614;10.048;2022-10-16T06:52:48;100840.28;;;17.07;59.78
60654;BME280;46476;53.614;10.048;2022-10-16T06:55:14;100863.22;;;17.06;59.91
60654;BME280;46476;53.614;10.048;2022-10-16T06:57:40;100852.50;;;17.05;59.88
60654;BME280;46476;53.614;10.048;2022-10-16T07:00:05;100873.69;;;17.03;60.19
60654;BME280;46476;53.614;10.048;2022-10-16T07:02:31;100859.00;;;17.04;60.03
60654;BME280;46476;53.614;10.048;2022-10-16T07:04:56;100860.03;;;17.03;60.21
60654;BME280;46476;53.614;10.048;2022-10-16T07:07:22;100869.72;;;17.05;60.32
60654;BME280;46476;53.614;10.048;2022-10-16T07:09:49;100870.00;;;17.10;59.83
60654;BME280;46476;53.614;10.048;2022-10-16T07:12:15;100872.63;;;17.19;59.85
60654;BME280;46476;53.614;10.048;2022-10-16T07:14:40;100879.31;;;17.16;60.36
60654;BME280;46476;53.614;10.048;2022-10-16T07:17:05;100881.44;;;17.14;60.36
60654;BME280;46476;53.614;10.048;2022-10-16T07:19:31;100880.19;;;17.17;60.25
60654;BME280;46476;53.614;10.048;2022-10-16T07:21:56;100877.00;;;17.13;60.47
60654;BME280;46476;53.614;10.048;2022-10-16T07:24:22;100873.66;;;17.18;60.66
60654;BME280;46476;53.614;10.048;2022-10-16T07:26:47;100886.56;;;17.24;60.64
60654;BME280;46476;53.614;10.048;2022-10-16T07:29:18;100880.06;;;17.25;60.45
60654;BME280;46476;53.614;10.048;2022-10-16T07:31:44;100900.94;;;17.26;60.65
60654;BME280;46476;53.614;10.048;2022-10-16T07:34:11;100890.34;;;17.23;60.49
60654;BME280;46476;53.614;10.048;2022-10-16T07:36:37;100906.19;;;17.27;60.40
60654;BME280;46476;53.614;10.048;2022-10-16T07:39:03;100913.19;;;17.30;60.41
60654;BME280;46476;53.614;10.048;2022-10-16T07:41:28;100919.75;;;17.36;60.62
60654;BME280;46476;53.614;10.048;2022-10-16T07:43:56;100917.50;;;17.39;60.71
60654;BME280;46476;53.614;10.048;2022-10-16T07:46:25;100921.53;;;17.43;60.66
60654;BME280;46476;53.614;10.048;2022-10-16T07:48:51;100911.44;;;17.44;60.68
60654;BME280;46476;53.614;10.048;2022-10-16T07:51:23;100914.19;;;17.44;60.54
60654;BME280;46476;53.614;10.048;2022-10-16T07:53:48;100912.34;;;17.51;60.48
60654;BME280;46476;53.614;10.048;2022-10-16T07:56:15;100913.66;;;17.55;60.73
60654;BME280;46476;53.614;10.048;2022-10-16T07:58:41;100918.97;;;17.57;60.63
60654;BME280;46476;53.614;10.048;2022-10-16T08:01:10;100926.78;;;17.60;60.64
60654;BME280;46476;53.614;10.048;2022-10-16T08:03:36;100929.72;;;17.58;60.48
60654;BME280;46476;53.614;10.048;2022-10-16T08:06:03;100931.44;;;17.59;60.42
60654;BME280;46476;53.614;10.048;2022-10-16T08:08:29;100928.50;;;17.61;60.31
60654;BME280;46476;53.614;10.048;2022-10-16T08:10:55;100936.09;;;17.65;60.42
60654;BME280;46476;53.614;10.048;2022-10-16T08:13:21;100947.53;;;17.69;60.48
60654;BME280;46476;53.614;10.048;2022-10-16T08:15:46;100948.19;;;17.71;60.81
60654;BME280;46476;53.614;10.048;2022-10-16T08:18:13;100935.34;;;17.72;60.44
60654;BME280;46476;53.614;10.048;2022-10-16T08:20:41;100941.28;;;17.75;60.40
60654;BME280;46476;53.614;10.048;2022-10-16T08:23:09;100945.50;;;17.78;60.36
60654;BME280;46476;53.614;10.048;2022-10-16T08:25:36;100944.00;;;17.75;60.48
60654;BME280;46476;53.614;10.048;2022-10-16T08:28:04;100942.78;;;17.78;60.42
60654;BME280;46476;53.614;10.048;2022-10-16T08:30:30;100952.97;;;17.84;60.21
60654;BME280;46476;53.614;10.048;2022-10-16T08:32:55;100951.72;;;17.87;60.27
60654;BME280;46476;53.614;10.048;2022-10-16T08:35:20;100944.59;;;17.92;59.89
60654;BME280;46476;53.614;10.048;2022-10-16T08:37:46;100945.47;;;17.93;60.08
60654;BME280;46476;53.614;10.048;2022-10-16T08:40:20;100953.31;;;17.96;59.68
60654;BME280;46476;53.614;10.048;2022-10-16T08:46:04;100955.84;;;17.97;59.96
60654;BME280;46476;53.614;10.048;2022-10-16T08:48:37;100953.03;;;17.91;60.23
60654;BME280;46476;53.614;10.048;2022-10-16T08:51:31;100951.63;;;17.95;59.94
60654;BME280;46476;53.614;10.048;2022-10-16T08:54:19;100951.63;;;17.95;59.85
60654;BME280;46476;53.614;10.048;2022-10-16T08:56:46;100963.41;;;17.95;59.82
60654;BME280;46476;53.614;10.048;2022-10-16T08:59:13;100965.78;;;17.98;59.99
60654;BME280;46476;53.614;10.048;2022-10-16T09:01:50;100973.34;;;17.96;59.94
60654;BME280;46476;53.614;10.048;2022-10-16T09:07:35;100974.25;;;18.04;59.82
60654;BME280;46476;53.614;10.048;2022-10-16T09:12:40;100989.25;;;18.08;59.75
60654;BME280;46476;53.614;10.048;2022-10-16T09:15:50;100989.25;;;18.08;60.06
60654;BME280;46476;53.614;10.048;2022-10-16T09:18:12;100988.69;;;18.12;59.75
60654;BME280;46476;53.614;10.048;2022-10-16T09:21:01;100980.72;;;18.18;59.91
60654;BME280;46476;53.614;10.048;2022-10-16T09:23:33;100989.59;;;18.20;59.84
60654;BME280;46476;53.614;10.048;2022-10-16T09:25:59;100997.66;;;18.28;59.50
60654;BME280;46476;53.614;10.048;2022-10-16T09:28:25;101007.78;;;18.27;59.33
60654;BME280;46476;53.614;10.048;2022-10-16T09:30:50;101005.72;;;18.29;59.38
60654;BME280;46476;53.614;10.048;2022-10-16T09:33:17;101009.50;;;18.28;59.48
60654;BME280;46476;53.614;10.048;2022-10-16T09:35:50;101012.22;;;18.28;59.31
60654;BME280;46476;53.614;10.048;2022-10-16T09:38:37;101011.78;;;18.25;58.78
60654;BME280;46476;53.614;10.048;2022-10-16T09:41:16;101003.09;;;18.21;58.62
60654;BME280;46476;53.614;10.048;2022-10-16T09:46:22;101007.25;;;18.17;58.11
60654;BME280;46476;53.614;10.048;2022-10-16T09:48:51;101006.50;;;18.23;58.58
60654;BME280;46476;53.614;10.048;2022-10-16T09:51:32;101001.06;;;18.30;58.62
60654;BME280;46476;53.614;10.048;2022-10-16T09:54:12;101015.44;;;18.32;58.36
60654;BME280;46476;53.614;10.048;2022-10-16T09:56:38;101009.75;;;18.34;58.07
60654;BME280;46476;53.614;10.048;2022-10-16T09:59:15;101022.00;;;18.38;57.78
60654;BME280;46476;53.614;10.048;2022-10-16T10:01:48;101033.81;;;18.38;57.89
60654;BME280;46476;53.614;10.048;2022-10-16T10:04:15;101028.78;;;18.42;58.07
60654;BME280;46476;53.614;10.048;2022-10-16T10:06:46;101040.88;;;18.47;57.83
60654;BME280;46476;53.614;10.048;2022-10-16T10:09:24;101036.50;;;18.53;57.82
60654;BME280;46476;53.614;10.048;2022-10-16T10:11:58;101050.06;;;18.61;57.47
60654;BME280;46476;53.614;10.048;2022-10-16T10:14:28;101049.28;;;18.68;57.55
60654;BME280;46476;53.614;10.048;2022-10-16T10:19:42;101043.31;;;18.86;56.71
60654;BME280;46476;53.614;10.048;2022-10-16T10:38:41;101055.00;;;18.94;56.96
60654;BME280;46476;53.614;10.048;2022-10-16T10:42:06;101064.84;;;18.89;56.68
60654;BME280;46476;53.614;10.048;2022-10-16T10:52:54;101064.59;;;18.84;56.69
60654;BME280;46476;53.614;10.048;2022-10-16T10:55:54;101058.94;;;18.85;56.07
60654;BME280;46476;53.614;10.048;2022-10-16T11:01:04;101057.09;;;18.92;56.62
60654;BME280;46476;53.614;10.048;2022-10-16T11:06:17;101066.25;;;19.00;55.78
60654;BME280;46476;53.614;10.048;2022-10-16T11:09:09;101065.63;;;19.04;55.22
60654;BME280;46476;53.614;10.048;2022-10-16T11:11:42;101063.94;;;19.03;54.98
60654;BME280;46476;53.614;10.048;2022-10-16T11:16:50;101069.03;;;19.06;54.99
60654;BME280;46476;53.614;10.048;2022-10-16T11:19:45;101077.91;;;19.08;54.91
60654;BME280;46476;53.614;10.048;2022-10-16T11:22:36;101075.75;;;19.04;55.07
60654;BME280;46476;53.614;10.048;2022-10-16T11:30:26;101085.81;;;18.96;54.15
60654;BME280;46476;53.614;10.048;2022-10-16T11:35:46;101090.91;;;18.93;53.83
60654;BME280;46476;53.614;10.048;2022-10-16T11:38:35;101092.38;;;18.95;53.65
60654;BME280;46476;53.614;10.048;2022-10-16T11:46:53;101120.66;;;18.74;53.32
60654;BME280;46476;53.614;10.048;2022-10-16T11:49:25;101108.44;;;18.77;53.36
60654;BME280;46476;53.614;10.048;2022-10-16T11:52:02;101116.88;;;18.75;53.18
60654;BME280;46476;53.614;10.048;2022-10-16T11:54:36;101112.88;;;18.78;53.19
60654;BME280;46476;53.614;10.048;2022-10-16T11:57:17;101121.50;;;18.75;53.48
60654;BME280;46476;53.614;10.048;2022-10-16T11:59:51;101129.91;;;18.73;53.35
60654;BME280;46476;53.614;10.048;2022-10-16T12:02:36;101142.53;;;18.68;53.06
60654;BME280;46476;53.614;10.048;2022-10-16T12:08:02;101135.81;;;18.70;53.32
60654;BME280;46476;53.614;10.048;2022-10-16T12:10:31;101128.63;;;18.69;53.17
60654;BME280;46476;53.614;10.048;2022-10-16T12:12:59;101142.59;;;18.74;53.23
60654;BME280;46476;53.614;10.048;2022-10-16T12:15:30;101152.13;;;18.78;52.70
60654;BME280;46476;53.614;10.048;2022-10-16T12:17:56;101151.75;;;18.82;52.83
60654;BME280;46476;53.614;10.048;2022-10-16T12:20:25;101165.47;;;18.82;52.40
60654;BME280;46476;53.614;10.048;2022-10-16T12:22:55;101166.31;;;18.82;52.24
60654;BME280;46476;53.614;10.048;2022-10-16T12:25:29;101163.09;;;18.78;52.18
60654;BME280;46476;53.614;10.048;2022-10-16T12:28:02;101163.28;;;18.77;52.44
60654;BME280;46476;53.614;10.048;2022-10-16T12:30:31;101159.31;;;18.79;53.30
60654;BME280;46476;53.614;10.048;2022-10-16T12:32:59;101165.72;;;18.87;53.28
60654;BME280;46476;53.614;10.048;2022-10-16T12:35:29;101173.38;;;18.91;53.53
60654;BME280;46476;53.614;10.048;2022-10-16T12:38:05;101178.97;;;18.98;53.34
60654;BME280;46476;53.614;10.048;2022-10-16T12:40:33;101166.53;;;19.02;53.02
60654;BME280;46476;53.614;10.048;2022-10-16T12:48:48;101188.22;;;18.97;52.79
60654;BME280;46476;53.614;10.048;2022-10-16T12:51:34;101199.00;;;18.99;53.04
60654;BME280;46476;53.614;10.048;2022-10-16T12:54:04;101194.81;;;19.03;52.18
60654;BME280;46476;53.614;10.048;2022-10-16T13:05:50;101212.06;;;18.96;51.54
60654;BME280;46476;53.614;10.048;2022-10-16T13:22:11;101220.13;;;18.98;50.93
60654;BME280;46476;53.614;10.048;2022-10-16T13:24:59;101228.09;;;18.93;50.66
60654;BME280;46476;53.614;10.048;2022-10-16T13:27:35;101239.69;;;18.95;50.64
60654;BME280;46476;53.614;10.048;2022-10-16T13:30:24;101248.97;;;18.94;50.47
60654;BME280;46476;53.614;10.048;2022-10-16T13:33:12;101261.66;;;18.95;50.38
60654;BME280;46476;53.614;10.048;2022-10-16T13:35:49;101252.66;;;18.86;49.95
60654;BME280;46476;53.614;10.048;2022-10-16T13:38:18;101252.97;;;18.91;50.69
60654;BME280;46476;53.614;10.048;2022-10-16T13:40:59;101252.59;;;18.94;50.60
60654;BME280;46476;53.614;10.048;2022-10-16T13:43:38;101258.53;;;18.98;50.94
60654;BME280;46476;53.614;10.048;2022-10-16T13:46:07;101275.06;;;19.05;50.89
60654;BME280;46476;53.614;10.048;2022-10-16T13:48:36;101261.28;;;18.98;50.77
60654;BME280;46476;53.614;10.048;2022-10-16T13:51:20;101270.81;;;19.02;51.00
60654;BME280;46476;53.614;10.048;2022-10-16T13:53:45;101275.06;;;19.05;51.27
60654;BME280;46476;53.614;10.048;2022-10-16T13:56:14;101283.09;;;19.06;51.07
60654;BME280;46476;53.614;10.048;2022-10-16T13:58:40;101278.00;;;19.03;50.71
60654;BME280;46476;53.614;10.048;2022-10-16T14:01:18;101280.56;;;19.05;50.33
60654;BME280;46476;53.614;10.048;2022-10-16T14:03:45;101287.94;;;19.04;50.43
60654;BME280;46476;53.614;10.048;2022-10-16T14:06:14;101293.63;;;19.03;49.99
60654;BME280;46476;53.614;10.048;2022-10-16T14:08:46;101298.91;;;19.04;50.15
60654;BME280;46476;53.614;10.048;2022-10-16T14:11:20;101302.88;;;19.02;49.91
60654;BME280;46476;53.614;10.048;2022-10-16T14:13:47;101299.31;;;19.01;50.48
60654;BME280;46476;53.614;10.048;2022-10-16T14:16:19;101292.78;;;19.02;50.38
60654;BME280;46476;53.614;10.048;2022-10-16T14:18:52;101305.25;;;19.05;50.26
60654;BME280;46476;53.614;10.048;2022-10-16T14:21:20;101304.59;;;19.03;50.34
60654;BME280;46476;53.614;10.048;2022-10-16T14:23:45;101313.88;;;19.02;50.33
60654;BME280;46476;53.614;10.048;2022-10-16T14:28:38;101318.72;;;19.00;50.34
60654;BME280;46476;53.614;10.048;2022-10-16T14:33:44;101323.53;;;18.98;49.82
60654;BME280;46476;53.614;10.048;2022-10-16T14:36:11;101328.66;;;19.01;49.99
60654;BME280;46476;53.614;10.048;2022-10-16T14:38:38;101338.41;;;19.03;49.65
60654;BME280;46476;53.614;10.048;2022-10-16T14:41:04;101334.31;;;18.99;49.89
60654;BME280;46476;53.614;10.048;2022-10-16T14:43:37;101334.78;;;19.03;49.80
60654;BME280;46476;53.614;10.048;2022-10-16T14:46:09;101349.38;;;19.03;50.03
60654;BME280;46476;53.614;10.048;2022-10-16T14:48:43;101345.56;;;19.04;49.78
60654;BME280;46476;53.614;10.048;2022-10-16T14:51:15;101346.44;;;19.05;49.63
60654;BME280;46476;53.614;10.048;2022-10-16T14:53:40;101344.91;;;19.02;49.88
60654;BME280;46476;53.614;10.048;2022-10-16T14:56:07;101352.94;;;19.04;49.79
60654;BME280;46476;53.614;10.048;2022-10-16T14:58:34;101349.38;;;19.03;49.88
60654;BME280;46476;53.614;10.048;2022-10-16T15:01:00;101356.53;;;19.04;50.02
60654;BME280;46476;53.614;10.048;2022-10-16T15:03:25;101360.16;;;19.05;49.84
60654;BME280;46476;53.614;10.048;2022-10-16T15:05:50;101362.91;;;19.05;50.23
60654;BME280;46476;53.614;10.048;2022-10-16T15:08:15;101360.78;;;19.07;50.34
60654;BME280;46476;53.614;10.048;2022-10-16T15:10:43;101363.94;;;19.04;50.13
60654;BME280;46476;53.614;10.048;2022-10-16T15:13:13;101368.38;;;19.05;50.48
60654;BME280;46476;53.614;10.048;2022-10-16T15:15:46;101373.00;;;19.04;50.11
60654;BME280;46476;53.614;10.048;2022-10-16T15:18:13;101377.19;;;19.00;50.14
60654;BME280;46476;53.614;10.048;2022-10-16T15:20:40;101367.91;;;19.01;50.04
60654;BME280;46476;53.614;10.048;2022-10-16T15:23:13;101375.31;;;19.01;50.37
60654;BME280;46476;53.614;10.048;2022-10-16T15:25:43;101378.06;;;19.01;50.52
60654;BME280;46476;53.614;10.048;2022-10-16T15:28:09;101385.22;;;19.02;50.73
60654;BME280;46476;53.614;10.048;2022-10-16T15:30:36;101389.88;;;19.01;50.66
60654;BME280;46476;53.614;10.048;2022-10-16T15:33:02;101381.44;;;19.03;50.50
60654;BME280;46476;53.614;10.048;2022-10-16T15:35:28;101385.41;;;19.00;50.91
60654;BME280;46476;53.614;10.048;2022-10-16T15:37:53;101389.19;;;18.99;50.76
60654;BME280;46476;53.614;10.048;2022-10-16T15:40:20;101387.53;;;18.98;50.94
60654;BME280;46476;53.614;10.048;2022-10-16T15:42:45;101393.19;;;18.96;51.14
60654;BME280;46476;53.614;10.048;2022-10-16T15:45:11;101399.25;;;18.92;51.40
60654;BME280;46476;53.614;10.048;2022-10-16T15:47:37;101401.13;;;18.91;51.63
60654;BME280;46476;53.614;10.048;2022-10-16T15:50:04;101406.13;;;18.88;51.92